Ouarzazate, Morocco
Current Conditions -  °F | °C
As of 10:00 AM on Sunday 26 Oct 2014 (Local Time) from GMMZ Reporting Station
Scattered Clouds Scattered Clouds  
Wind Chill: 64°   Ceiling: Unl
Heat Index: 64°   Visibility: 6mi
Dew Point: 36°   Wind: 1mph
Humidity: 34%   Direction: NA
Pressure: 30.24"   Gusts: NA
Location:  30.92°N, 6.9°W
Report Text: GMMZ 260900Z VRB01KT 9999 FEW040 SCT120 18/02 Q1024 NOSIG
Loading
Personal Weather Stations






























Interactive Weather Map
Tropical Storm Tracking
New forecast layout! Learn more

10-Day Weather Forecast

Advertisements
Track Severe Weather on mobile